createdAt,value
2022-12-05T00:00:23.221Z,23.300
2022-12-05T00:01:35.713Z,22.500
2022-12-05T00:02:26.020Z,22.600
2022-12-05T00:03:25.475Z,25.300
2022-12-05T00:04:24.637Z,24.750
2022-12-05T00:05:36.066Z,24.450
2022-12-05T00:06:26.562Z,25.800
2022-12-05T00:07:24.806Z,27.000
2022-12-05T00:08:38.851Z,21.400
2022-12-05T00:09:35.590Z,22.200
2022-12-05T00:10:26.026Z,23.950
2022-12-05T00:11:19.750Z,27.150
2022-12-05T00:12:22.686Z,23.900
2022-12-05T00:13:24.228Z,23.900
2022-12-05T00:14:23.211Z,21.500
2022-12-05T00:15:22.331Z,23.150
2022-12-05T00:16:28.849Z,20.500
2022-12-05T00:17:44.046Z,23.500
2022-12-05T00:18:19.343Z,24.400
2022-12-05T00:19:27.744Z,21.750
2022-12-05T00:20:20.123Z,21.000
2022-12-05T00:21:21.678Z,22.100
2022-12-05T00:22:26.939Z,21.500
2022-12-05T00:23:28.129Z,26.150
2022-12-05T00:24:25.038Z,30.000
2022-12-05T00:25:21.268Z,32.500
2022-12-05T00:26:20.282Z,30.800
2022-12-05T00:27:25.605Z,32.900
2022-12-05T00:28:36.627Z,32.600
2022-12-05T00:29:27.648Z,28.700
2022-12-05T00:30:25.548Z,27.200
2022-12-05T00:31:24.241Z,23.700
2022-12-05T00:32:21.480Z,23.600
2022-12-05T00:33:24.287Z,25.400
2022-12-05T00:34:27.564Z,25.200
2022-12-05T00:35:23.098Z,22.700
2022-12-05T00:36:31.331Z,26.500
2022-12-05T00:37:27.659Z,24.700
2022-12-05T00:38:38.913Z,26.950
2022-12-05T00:39:20.677Z,29.400
2022-12-05T00:40:25.862Z,25.500
2022-12-05T00:41:20.657Z,25.300
2022-12-05T00:42:24.692Z,30.400
2022-12-05T00:43:35.487Z,30.500
2022-12-05T00:44:27.877Z,28.800
2022-12-05T00:45:25.673Z,29.750
2022-12-05T00:46:19.617Z,33.100
2022-12-05T00:47:25.730Z,36.700
2022-12-05T00:48:25.389Z,37.000
2022-12-05T00:49:22.052Z,29.650
2022-12-05T00:50:21.839Z,34.500
2022-12-05T00:51:23.619Z,36.000
2022-12-05T00:52:23.291Z,32.500
2022-12-05T00:53:19.589Z,30.500
2022-12-05T00:54:33.182Z,27.000
2022-12-05T00:55:26.094Z,27.400
2022-12-05T00:56:21.478Z,27.900
2022-12-05T00:57:25.392Z,25.700
2022-12-05T00:58:22.474Z,26.100
2022-12-05T00:59:23.279Z,25.350
2022-12-05T01:00:20.825Z,27.000
2022-12-05T01:01:32.127Z,25.700
2022-12-05T01:02:22.264Z,24.950
2022-12-05T01:03:21.502Z,24.700
2022-12-05T01:04:33.295Z,26.850
2022-12-05T01:05:22.382Z,26.000
2022-12-05T01:06:23.914Z,27.900
2022-12-05T01:07:19.398Z,28.450
2022-12-05T01:08:30.801Z,26.400
2022-12-05T01:09:19.941Z,24.200
2022-12-05T01:10:23.200Z,26.400
2022-12-05T01:11:41.043Z,25.250
2022-12-05T01:12:29.411Z,23.500
2022-12-05T01:13:23.739Z,24.800
2022-12-05T01:14:19.723Z,22.600
2022-12-05T01:15:26.736Z,24.450
2022-12-05T01:16:28.640Z,23.650
2022-12-05T01:17:21.824Z,23.200
2022-12-05T01:18:37.680Z,24.550
2022-12-05T01:19:32.721Z,26.000
2022-12-05T01:20:23.149Z,24.200
2022-12-05T01:21:20.063Z,23.150
2022-12-05T01:22:29.573Z,21.550
2022-12-05T01:23:25.760Z,22.200
2022-12-05T01:24:21.701Z,23.250
2022-12-05T01:25:31.766Z,24.100
2022-12-05T01:26:23.122Z,25.750
2022-12-05T01:27:28.987Z,23.800
2022-12-05T01:28:21.461Z,21.600
2022-12-05T01:29:31.481Z,23.450
2022-12-05T01:30:25.540Z,23.200
2022-12-05T01:31:20.570Z,21.800
2022-12-05T01:32:28.395Z,22.850
2022-12-05T01:33:28.101Z,23.250
2022-12-05T01:34:26.093Z,25.000
2022-12-05T01:35:19.768Z,23.200
2022-12-05T01:36:30.952Z,20.700
2022-12-05T01:37:25.443Z,19.300
2022-12-05T01:38:24.397Z,20.400
2022-12-05T01:39:32.048Z,21.100
2022-12-05T01:40:27.364Z,18.700
2022-12-05T01:41:25.423Z,21.600
2022-12-05T01:42:24.726Z,21.700
2022-12-05T01:43:25.269Z,21.300
2022-12-05T01:44:25.402Z,20.400
2022-12-05T01:45:21.579Z,21.100
2022-12-05T01:46:32.958Z,19.100
2022-12-05T01:47:27.519Z,19.450
2022-12-05T01:48:24.211Z,18.300
2022-12-05T01:49:21.669Z,20.000
2022-12-05T01:50:25.661Z,19.100
2022-12-05T01:51:25.428Z,21.450
2022-12-05T01:52:21.412Z,19.050
2022-12-05T01:53:31.801Z,19.900
2022-12-05T01:54:20.475Z,20.500
2022-12-05T01:55:25.187Z,18.600
2022-12-05T01:56:24.780Z,18.500
2022-12-05T01:57:30.362Z,21.150
2022-12-05T01:58:22.913Z,18.650
2022-12-05T01:59:21.790Z,22.600
2022-12-05T02:00:23.775Z,22.800
2022-12-05T02:01:39.424Z,20.000
2022-12-05T02:02:25.343Z,18.000
2022-12-05T02:41:24.196Z,17.400
2022-12-05T02:42:37.313Z,16.950
2022-12-05T02:43:31.278Z,19.500
2022-12-05T02:45:10.941Z,20.050
2022-12-05T02:45:21.876Z,19.700
2022-12-05T02:46:32.145Z,18.200
2022-12-05T03:19:26.763Z,19.500
2022-12-05T03:20:24.081Z,17.900
2022-12-05T03:21:25.749Z,21.050
2022-12-05T03:22:24.353Z,23.300
2022-12-05T03:23:36.995Z,18.950
2022-12-05T03:24:23.621Z,20.500
2022-12-05T03:25:30.485Z,21.700
2022-12-05T03:26:24.687Z,17.600
2022-12-05T03:27:22.000Z,16.050
2022-12-05T03:28:32.084Z,14.200
2022-12-05T03:29:21.828Z,21.500
2022-12-05T03:30:26.274Z,15.850
2022-12-05T03:31:31.809Z,15.500
2022-12-05T03:32:27.871Z,16.400
2022-12-05T03:33:26.077Z,16.700
2022-12-05T03:34:33.657Z,13.700
2022-12-05T03:35:20.035Z,15.650
2022-12-05T03:36:27.598Z,15.700
2022-12-05T03:37:22.719Z,14.900
2022-12-05T03:38:31.794Z,15.750
2022-12-05T03:39:27.809Z,14.600
2022-12-05T03:40:23.856Z,15.300
2022-12-05T03:41:26.058Z,16.050
2022-12-05T03:42:30.413Z,14.850
2022-12-05T03:43:27.841Z,17.900
2022-12-05T03:44:22.471Z,17.300
2022-12-05T03:45:19.747Z,15.200
2022-12-05T03:46:28.153Z,14.850
2022-12-05T03:47:25.388Z,13.600
2022-12-05T03:48:20.558Z,16.350
2022-12-05T03:49:33.931Z,16.150
2022-12-05T03:50:25.762Z,17.100
2022-12-05T03:51:22.945Z,14.800
2022-12-05T03:52:23.744Z,14.900
2022-12-05T03:53:27.694Z,17.600
2022-12-05T03:54:23.789Z,15.200
2022-12-05T03:55:22.323Z,15.900
2022-12-05T03:56:32.480Z,15.050
2022-12-05T03:57:25.744Z,14.950
2022-12-05T03:58:23.215Z,15.800
2022-12-05T03:59:23.687Z,16.100
2022-12-05T04:00:20.745Z,15.000
2022-12-05T04:01:23.920Z,15.050
2022-12-05T04:02:21.931Z,16.150
2022-12-05T04:03:32.422Z,14.450
2022-12-05T04:04:26.406Z,15.400
2022-12-05T04:05:23.453Z,14.750
2022-12-05T04:06:27.909Z,15.000
2022-12-05T04:07:22.255Z,16.800
2022-12-05T04:08:23.835Z,16.450
2022-12-05T04:09:19.837Z,15.700
2022-12-05T04:10:23.406Z,14.900
2022-12-05T04:11:25.766Z,15.750
2022-12-05T04:12:21.756Z,16.700
2022-12-05T04:13:31.954Z,18.700
2022-12-05T04:14:25.114Z,19.450
2022-12-05T04:15:23.625Z,20.050
2022-12-05T04:16:19.825Z,18.300
2022-12-05T04:17:24.723Z,16.500
2022-12-05T04:18:30.103Z,15.450
2022-12-05T04:19:21.742Z,16.200
2022-12-05T04:20:21.848Z,15.400
2022-12-05T04:21:19.708Z,14.300
2022-12-05T04:22:26.808Z,16.100
2022-12-05T04:23:21.521Z,14.650
2022-12-05T04:24:30.425Z,15.650
2022-12-05T04:25:26.006Z,14.000
2022-12-05T04:26:22.136Z,14.250
2022-12-05T04:27:31.864Z,14.600
2022-12-05T04:28:22.647Z,12.900
2022-12-05T04:29:26.983Z,13.900
2022-12-05T04:30:20.793Z,13.600
2022-12-05T04:31:30.975Z,15.200
2022-12-05T04:32:25.981Z,13.850
2022-12-05T04:33:22.681Z,12.850
2022-12-05T04:34:31.959Z,13.400
2022-12-05T04:35:29.231Z,12.950
2022-12-05T04:36:24.680Z,13.400
2022-12-05T04:37:24.035Z,12.100
2022-12-05T04:38:20.915Z,11.600
2022-12-05T04:39:20.754Z,10.500
2022-12-05T04:40:23.811Z,12.300
2022-12-05T04:41:33.596Z,11.350
2022-12-05T04:42:28.977Z,10.700
2022-12-05T04:43:25.326Z,10.800
2022-12-05T04:44:20.139Z,10.250
2022-12-05T04:45:21.421Z,10.400
2022-12-05T04:46:27.132Z,10.650
2022-12-05T04:47:21.969Z,10.700
2022-12-05T04:48:21.911Z,9.400
2022-12-05T04:49:29.780Z,9.450
2022-12-05T04:50:23.879Z,9.500
2022-12-05T04:51:21.465Z,9.700
2022-12-05T04:52:25.359Z,9.550
2022-12-05T04:53:22.666Z,9.250
2022-12-05T04:54:25.399Z,10.300
2022-12-05T04:55:34.834Z,10.650
2022-12-05T04:56:27.405Z,10.300
2022-12-05T04:57:25.941Z,12.300
2022-12-05T04:58:19.953Z,12.200
2022-12-05T04:59:30.194Z,11.600
2022-12-05T05:00:20.516Z,10.850
2022-12-05T05:01:21.922Z,10.700
2022-12-05T05:02:32.023Z,11.700
2022-12-05T05:03:29.165Z,10.100
2022-12-05T05:04:24.855Z,10.250
2022-12-05T05:05:21.499Z,9.300
2022-12-05T05:06:34.406Z,9.000
2022-12-05T05:07:26.771Z,10.350
2022-12-05T05:08:23.985Z,10.400
2022-12-05T05:09:33.528Z,10.100
2022-12-05T05:10:28.333Z,9.150
2022-12-05T05:11:29.627Z,9.800
2022-12-05T05:12:20.030Z,11.100
2022-12-05T05:13:30.049Z,10.150
2022-12-05T05:14:30.044Z,9.300
2022-12-05T05:15:23.489Z,9.100
2022-12-05T05:16:22.877Z,9.100
2022-12-05T05:17:29.891Z,8.850
2022-12-05T05:18:24.582Z,8.150
2022-12-05T05:19:20.562Z,10.400
2022-12-05T05:20:31.387Z,9.750
2022-12-05T05:21:26.235Z,9.900
2022-12-05T05:22:27.104Z,10.000
2022-12-05T05:23:25.701Z,9.100
2022-12-05T05:24:28.036Z,8.200
2022-12-05T05:25:25.771Z,8.900
2022-12-05T05:26:21.368Z,8.600
2022-12-05T05:27:29.979Z,8.400
2022-12-05T05:28:30.465Z,8.350
2022-12-05T05:29:22.420Z,8.300
2022-12-05T05:30:22.533Z,9.450
2022-12-05T05:31:22.805Z,9.800
2022-12-05T05:32:24.144Z,8.900
2022-12-05T05:33:21.681Z,8.400
2022-12-05T05:34:29.954Z,9.050
2022-12-05T05:35:25.990Z,8.600
2022-12-05T05:36:23.513Z,10.600
2022-12-05T05:37:26.631Z,8.650
2022-12-05T05:38:28.500Z,16.800
2022-12-05T05:39:20.679Z,8.950
2022-12-05T05:40:20.853Z,13.900
2022-12-05T05:41:31.653Z,9.950
2022-12-05T05:42:26.710Z,9.750
2022-12-05T05:43:23.619Z,9.600
2022-12-05T05:44:21.929Z,9.600
2022-12-05T05:45:23.819Z,13.100
2022-12-05T05:46:24.032Z,11.900
2022-12-05T05:47:20.053Z,12.050
2022-12-05T05:48:29.825Z,11.400
2022-12-05T05:49:25.862Z,10.700
2022-12-05T05:50:23.863Z,10.000
2022-12-05T05:51:24.917Z,12.250
2022-12-05T05:52:27.849Z,11.800
2022-12-05T05:53:20.286Z,11.550
2022-12-05T05:54:21.658Z,10.450
2022-12-05T05:55:19.789Z,10.100
2022-12-05T05:56:27.560Z,11.050
2022-12-05T05:57:22.781Z,10.350
2022-12-05T05:58:27.971Z,11.100
2022-12-05T05:59:29.789Z,11.650
2022-12-05T06:00:25.018Z,10.800
2022-12-05T06:01:20.026Z,9.700
2022-12-05T06:02:23.011Z,10.550
2022-12-05T06:03:25.994Z,11.400
2022-12-05T06:04:24.190Z,10.150
2022-12-05T06:05:38.036Z,10.250
2022-12-05T06:06:31.315Z,9.900
2022-12-05T06:07:24.345Z,8.950
2022-12-05T06:08:21.615Z,8.500
2022-12-05T06:09:22.802Z,9.650
2022-12-05T06:10:27.347Z,10.200
2022-12-05T06:11:25.823Z,11.200
2022-12-05T06:12:34.184Z,11.700
2022-12-05T06:13:20.846Z,11.800
2022-12-05T06:14:24.360Z,10.100
2022-12-05T06:15:21.943Z,11.350
2022-12-05T06:16:31.762Z,10.750
2022-12-05T06:17:21.541Z,9.900
2022-12-05T06:18:21.450Z,10.650
2022-12-05T06:19:38.460Z,12.100
2022-12-05T06:20:23.980Z,10.700
2022-12-05T06:21:26.242Z,11.750
2022-12-05T06:22:20.347Z,10.750
2022-12-05T06:23:22.828Z,10.400
2022-12-05T06:24:26.773Z,11.450
2022-12-05T06:25:22.314Z,11.900
2022-12-05T06:26:34.282Z,11.600
2022-12-05T06:27:28.823Z,10.850
2022-12-05T06:28:24.208Z,10.300
2022-12-05T06:29:25.078Z,9.600
2022-12-05T06:30:26.843Z,10.200
2022-12-05T06:31:21.968Z,10.550
2022-12-05T06:32:22.106Z,9.200
2022-12-05T06:33:33.639Z,9.200
2022-12-05T06:34:30.170Z,10.900
2022-12-05T06:35:24.080Z,10.250
2022-12-05T06:36:20.144Z,11.400
2022-12-05T06:37:30.493Z,9.800
2022-12-05T06:38:28.012Z,8.500
2022-12-05T06:39:22.323Z,9.700
2022-12-05T06:40:31.882Z,8.000
2022-12-05T06:41:29.752Z,8.400
2022-12-05T06:42:20.325Z,8.400
2022-12-05T06:43:21.776Z,8.300
2022-12-05T06:44:32.438Z,9.200
2022-12-05T06:45:28.248Z,10.300
2022-12-05T06:46:22.194Z,9.500
2022-12-05T06:47:24.011Z,9.450
2022-12-05T06:48:27.896Z,8.050
2022-12-05T06:49:29.326Z,9.500
2022-12-05T06:50:20.102Z,8.250
2022-12-05T06:51:30.433Z,10.500
2022-12-05T06:52:27.412Z,10.700
2022-12-05T06:53:24.727Z,9.900
2022-12-05T06:54:28.220Z,12.550
2022-12-05T06:55:20.633Z,9.050
2022-12-05T06:56:26.072Z,8.850
2022-12-05T06:57:20.627Z,9.300
2022-12-05T06:58:31.741Z,9.350
2022-12-05T06:59:25.876Z,9.200
2022-12-05T07:00:24.250Z,9.600
2022-12-05T07:01:21.956Z,9.250
2022-12-05T07:02:30.067Z,8.600
2022-12-05T07:03:23.934Z,9.600
2022-12-05T07:04:20.294Z,8.900
2022-12-05T07:05:30.304Z,9.800
2022-12-05T07:06:27.927Z,9.050
2022-12-05T07:07:24.686Z,9.450
2022-12-05T07:08:26.046Z,8.600
2022-12-05T07:09:28.796Z,9.400
2022-12-05T07:10:26.336Z,10.450
2022-12-05T07:11:20.036Z,10.250
2022-12-05T07:12:32.230Z,10.600
2022-12-05T07:13:26.354Z,10.050
2022-12-05T07:14:56.131Z,8.900
2022-12-05T07:15:34.294Z,10.150
2022-12-05T07:16:22.510Z,10.400
2022-12-05T07:17:27.533Z,9.900
2022-12-05T07:18:22.314Z,10.600
2022-12-05T07:19:30.131Z,10.600
2022-12-05T07:20:43.100Z,12.000
2022-12-05T07:21:24.045Z,12.400
2022-12-05T07:22:33.681Z,12.400
2022-12-05T07:23:30.371Z,10.500
2022-12-05T07:24:24.284Z,10.550
2022-12-05T07:25:25.250Z,9.800
2022-12-05T07:26:31.528Z,9.350
2022-12-05T07:27:27.958Z,9.700
2022-12-05T07:28:24.279Z,11.550
2022-12-05T07:29:19.933Z,10.750
2022-12-05T07:30:30.227Z,11.900
2022-12-05T07:31:25.991Z,12.250
2022-12-05T07:32:20.420Z,13.400
2022-12-05T07:33:21.582Z,12.450
2022-12-05T07:34:26.262Z,11.000
2022-12-05T07:35:23.370Z,9.900
2022-12-05T07:36:23.004Z,10.950
2022-12-05T07:37:28.327Z,10.800
2022-12-05T07:38:25.957Z,11.400
2022-12-05T07:39:34.547Z,10.700
2022-12-05T07:40:25.299Z,10.000
2022-12-05T07:41:26.022Z,10.850
2022-12-05T07:42:22.487Z,11.900
2022-12-05T07:43:28.223Z,11.000
2022-12-05T07:44:29.979Z,11.850
2022-12-05T07:45:24.212Z,13.650
2022-12-05T07:46:20.321Z,11.300
2022-12-05T07:47:21.075Z,13.300
2022-12-05T07:48:26.208Z,16.300
2022-12-05T07:49:22.902Z,15.350
2022-12-05T07:50:29.964Z,16.600
2022-12-05T07:51:28.419Z,15.300
2022-12-05T07:52:24.079Z,13.750
2022-12-05T07:53:20.529Z,16.400
2022-12-05T07:54:26.125Z,16.350
2022-12-05T07:55:42.889Z,17.350
2022-12-05T07:56:23.877Z,15.700
2022-12-05T07:57:34.441Z,17.000
2022-12-05T07:58:28.401Z,22.500
2022-12-05T07:59:21.744Z,20.300
2022-12-05T08:00:20.040Z,19.050
2022-12-05T08:01:27.323Z,24.100
2022-12-05T08:02:26.623Z,19.900
2022-12-05T08:03:24.281Z,19.850
2022-12-05T08:04:35.029Z,19.500
2022-12-05T08:05:23.795Z,20.300
2022-12-05T08:06:24.612Z,20.550
2022-12-05T08:07:21.581Z,20.300
2022-12-05T08:08:31.264Z,19.150
2022-12-05T08:09:22.299Z,18.700
2022-12-05T08:10:22.523Z,20.800
2022-12-05T08:11:20.688Z,20.800
2022-12-05T08:12:25.238Z,23.300
2022-12-05T08:13:24.377Z,19.950
2022-12-05T08:14:35.640Z,22.200
2022-12-05T08:15:30.255Z,21.600
2022-12-05T08:16:24.480Z,22.650
2022-12-05T08:17:22.678Z,23.850
2022-12-05T08:18:27.555Z,21.300
2022-12-05T08:19:28.220Z,24.000
2022-12-05T08:20:24.806Z,22.450
2022-12-05T08:21:20.452Z,23.200
2022-12-05T08:22:30.150Z,24.500
2022-12-05T08:23:25.238Z,22.300
2022-12-05T08:24:23.453Z,26.550
2022-12-05T08:25:29.051Z,28.200
2022-12-05T08:26:21.938Z,25.650
2022-12-05T08:27:19.570Z,24.050
2022-12-05T08:28:20.495Z,25.700
2022-12-05T08:29:31.926Z,24.300
2022-12-05T08:30:26.687Z,26.000
2022-12-05T08:31:23.760Z,25.950
2022-12-05T08:32:20.595Z,26.250
2022-12-05T08:33:28.272Z,23.300
2022-12-05T08:34:21.835Z,22.700
2022-12-05T08:35:21.025Z,21.200
2022-12-05T08:36:32.022Z,26.300
2022-12-05T08:37:26.215Z,25.400
2022-12-05T08:38:22.469Z,24.500
2022-12-05T08:39:25.729Z,22.450
2022-12-05T08:40:33.190Z,23.300
2022-12-05T08:41:24.343Z,24.300
2022-12-05T08:42:20.322Z,27.050
2022-12-05T08:43:31.350Z,25.200
2022-12-05T08:44:21.505Z,25.750
2022-12-05T08:45:22.632Z,26.600
2022-12-05T08:46:28.380Z,23.600
2022-12-05T08:47:22.857Z,24.800
2022-12-05T08:48:28.967Z,23.700
2022-12-05T08:49:20.819Z,28.700
2022-12-05T08:50:27.463Z,29.350
2022-12-05T08:51:26.600Z,24.750
2022-12-05T08:52:22.217Z,23.500
2022-12-05T08:53:31.917Z,24.800
2022-12-05T08:54:25.386Z,23.450
2022-12-05T08:55:24.162Z,29.100
2022-12-05T08:56:26.376Z,25.550
2022-12-05T08:57:30.518Z,23.650
2022-12-05T08:58:27.749Z,24.000
2022-12-05T08:59:22.157Z,25.700
2022-12-05T09:00:32.301Z,27.500
2022-12-05T09:01:24.368Z,26.050
2022-12-05T09:02:25.414Z,25.450
2022-12-05T09:03:20.146Z,25.900
2022-12-05T09:04:23.926Z,26.550
2022-12-05T09:05:29.462Z,26.200
2022-12-05T09:06:22.692Z,22.900
2022-12-05T09:07:28.711Z,24.350
2022-12-05T09:08:29.543Z,27.800
2022-12-05T09:09:26.604Z,26.500
2022-12-05T09:10:23.937Z,27.500
2022-12-05T09:11:26.716Z,38.400
2022-12-05T09:12:22.113Z,40.400
2022-12-05T09:13:22.542Z,42.000
2022-12-05T09:14:32.612Z,33.700
2022-12-05T09:15:28.416Z,34.100
2022-12-05T09:16:24.595Z,33.100
2022-12-05T09:17:24.639Z,27.200
2022-12-05T09:18:25.710Z,29.750
2022-12-05T09:19:26.450Z,30.100
2022-12-05T09:20:22.539Z,28.800
2022-12-05T09:21:21.854Z,27.100
2022-12-05T09:22:30.573Z,30.700
2022-12-05T09:23:25.048Z,33.800
2022-12-05T09:24:21.860Z,37.450
2022-12-05T09:25:20.728Z,35.900
2022-12-05T09:26:28.632Z,33.000
2022-12-05T09:27:23.771Z,35.200
2022-12-05T09:28:24.307Z,44.750
2022-12-05T09:29:22.481Z,37.600
2022-12-05T09:30:26.421Z,34.500
2022-12-05T09:31:21.318Z,28.200
2022-12-05T09:32:24.483Z,31.250
2022-12-05T09:33:26.984Z,34.050
2022-12-05T09:34:22.317Z,23.800
2022-12-05T09:35:28.708Z,36.200
2022-12-05T09:36:28.182Z,37.600
2022-12-05T09:37:40.199Z,32.700
2022-12-05T09:38:21.490Z,34.900
2022-12-05T09:39:23.458Z,32.750
2022-12-05T09:40:21.529Z,34.500
2022-12-05T09:41:22.425Z,24.500
2022-12-05T09:42:23.437Z,26.700
2022-12-05T09:43:28.864Z,29.900
2022-12-05T09:44:25.841Z,30.600
2022-12-05T09:45:20.464Z,28.650
2022-12-05T09:46:26.108Z,22.700
2022-12-05T09:47:28.159Z,25.600
2022-12-05T09:48:22.243Z,27.550
2022-12-05T09:49:26.794Z,31.300
2022-12-05T09:50:22.057Z,31.800
2022-12-05T09:51:24.450Z,28.100
2022-12-05T09:52:22.192Z,33.700
2022-12-05T09:53:32.265Z,31.250
2022-12-05T09:54:29.323Z,35.900
2022-12-05T09:55:22.257Z,33.900
2022-12-05T09:56:32.495Z,30.300
2022-12-05T09:57:30.404Z,28.550
2022-12-05T09:58:24.740Z,29.750
2022-12-05T09:59:20.215Z,32.200
2022-12-05T10:00:32.495Z,23.400
2022-12-05T10:01:27.027Z,22.900
2022-12-05T10:02:22.739Z,27.200
2022-12-05T10:03:26.448Z,24.800
2022-12-05T10:04:29.432Z,24.400
2022-12-05T10:05:21.578Z,28.350
2022-12-05T10:06:34.440Z,28.500
2022-12-05T10:07:32.720Z,24.750
2022-12-05T10:08:21.529Z,25.750
2022-12-05T10:09:22.648Z,28.300
2022-12-05T10:10:23.476Z,27.850
2022-12-05T10:11:29.084Z,21.450
2022-12-05T10:12:25.672Z,24.500
2022-12-05T10:13:20.687Z,26.800
2022-12-05T10:14:25.883Z,18.300
2022-12-05T10:15:27.271Z,19.250
2022-12-05T10:16:22.691Z,23.800
2022-12-05T10:17:29.053Z,22.500
2022-12-05T10:18:20.554Z,24.400
2022-12-05T10:19:24.512Z,28.500
2022-12-05T10:20:23.755Z,25.350
2022-12-05T10:21:31.615Z,22.250
2022-12-05T10:22:27.522Z,21.400
2022-12-05T10:23:48.843Z,19.800
2022-12-05T10:24:33.490Z,20.400
2022-12-05T10:25:20.575Z,17.400
2022-12-05T10:26:24.448Z,16.200
2022-12-05T10:27:20.633Z,15.600
2022-12-05T10:28:32.089Z,19.850
2022-12-05T10:29:26.708Z,19.200
2022-12-05T10:30:23.999Z,17.650
2022-12-05T10:31:25.467Z,21.850
2022-12-05T10:32:28.273Z,19.400
2022-12-05T10:33:23.685Z,22.700
2022-12-05T10:34:21.252Z,39.900
2022-12-05T10:35:23.999Z,32.200
2022-12-05T10:36:26.430Z,27.000
2022-12-05T10:37:21.236Z,28.650
2022-12-05T10:38:32.641Z,27.850
2022-12-05T10:39:29.127Z,27.100
2022-12-05T10:40:28.026Z,26.700
2022-12-05T10:41:22.999Z,25.950
2022-12-05T10:42:23.074Z,22.450
2022-12-05T10:43:21.502Z,21.100
2022-12-05T10:44:23.402Z,20.900
2022-12-05T10:45:33.916Z,19.700
2022-12-05T10:46:29.041Z,21.400
2022-12-05T10:47:26.409Z,22.000
2022-12-05T10:48:23.904Z,22.700
2022-12-05T10:49:34.830Z,19.000
2022-12-05T10:50:26.440Z,20.800
2022-12-05T10:51:30.160Z,20.800
2022-12-05T10:52:48.415Z,20.800
2022-12-05T10:53:40.250Z,21.900
2022-12-05T10:54:35.438Z,26.250
2022-12-05T10:55:23.311Z,23.900
2022-12-05T10:56:36.996Z,28.100
2022-12-05T10:57:31.206Z,26.600
2022-12-05T10:58:23.618Z,31.300
2022-12-05T10:59:24.137Z,32.200
2022-12-05T11:00:39.159Z,44.500
2022-12-05T11:01:38.929Z,29.500
2022-12-05T11:02:26.080Z,33.400
2022-12-05T11:03:23.302Z,37.400
2022-12-05T11:04:33.969Z,36.100
2022-12-05T11:05:29.091Z,36.100
2022-12-05T11:06:19.999Z,72.450
2022-12-05T11:07:50.453Z,63.300
2022-12-05T11:09:03.806Z,57.600
2022-12-05T11:09:28.228Z,44.400
2022-12-05T11:10:26.355Z,48.900
2022-12-05T11:11:22.205Z,35.700
2022-12-05T11:12:31.077Z,33.800
2022-12-05T11:13:26.155Z,34.500
2022-12-05T11:14:54.021Z,31.200
2022-12-05T11:15:52.249Z,34.400
2022-12-05T11:16:28.086Z,33.700
2022-12-05T11:17:31.457Z,32.500
2022-12-05T11:18:25.728Z,35.500
2022-12-05T11:19:38.755Z,50.800
2022-12-05T11:20:26.248Z,45.350
2022-12-05T11:21:21.647Z,36.600
2022-12-05T11:22:32.909Z,31.200
2022-12-05T11:23:33.942Z,32.800
2022-12-05T11:24:22.369Z,31.350
2022-12-05T11:25:29.425Z,25.750
2022-12-05T11:26:21.930Z,23.500
2022-12-05T11:27:25.246Z,26.550
2022-12-05T11:28:25.791Z,29.000
2022-12-05T11:29:55.786Z,25.100
2022-12-05T11:30:38.063Z,24.200
2022-12-05T11:31:25.057Z,24.500
2022-12-05T11:32:32.338Z,23.000
2022-12-05T11:33:26.991Z,22.000
2022-12-05T11:34:31.533Z,23.100
2022-12-05T11:35:29.954Z,23.700
2022-12-05T11:36:23.224Z,23.700
2022-12-05T11:37:40.753Z,20.800
2022-12-05T11:38:21.710Z,22.600
2022-12-05T11:39:37.606Z,22.450
2022-12-05T11:40:35.165Z,23.100
2022-12-05T11:41:23.590Z,23.800
2022-12-05T11:42:21.484Z,16.200
2022-12-05T11:43:27.087Z,15.700
2022-12-05T11:44:20.474Z,16.250
2022-12-05T11:45:29.194Z,17.500
2022-12-05T11:46:28.282Z,16.850
2022-12-05T11:47:22.512Z,17.500
2022-12-05T11:48:26.665Z,14.800
2022-12-05T11:49:24.668Z,13.500
2022-12-05T11:50:24.297Z,14.950
2022-12-05T11:51:20.546Z,13.950
2022-12-05T11:52:38.904Z,14.500
2022-12-05T11:53:29.388Z,17.100
2022-12-05T11:54:56.363Z,15.400
2022-12-05T11:55:23.088Z,14.700
2022-12-05T11:56:25.726Z,14.850
2022-12-05T11:57:24.305Z,15.250
2022-12-05T11:58:20.414Z,15.500
2022-12-05T11:59:23.508Z,13.850
2022-12-05T12:00:22.867Z,15.950
2022-12-05T12:01:22.449Z,17.200
2022-12-05T12:02:34.323Z,18.100
2022-12-05T12:03:33.943Z,19.250
2022-12-05T12:04:20.116Z,13.700
2022-12-05T12:05:36.174Z,15.800
2022-12-05T12:06:25.882Z,14.300
2022-12-05T12:07:26.824Z,16.100
2022-12-05T12:08:22.894Z,17.150
2022-12-05T12:09:33.214Z,12.700
2022-12-05T12:10:34.927Z,12.250
2022-12-05T12:11:20.516Z,12.700
2022-12-05T12:12:23.931Z,14.400
2022-12-05T12:13:31.977Z,14.500
2022-12-05T12:14:22.882Z,16.100
2022-12-05T12:15:22.726Z,12.100
2022-12-05T12:16:33.704Z,11.950
2022-12-05T12:17:28.599Z,16.050
2022-12-05T12:18:24.855Z,15.700
2022-12-05T12:19:23.358Z,16.000
2022-12-05T12:20:31.557Z,15.650
2022-12-05T12:21:27.707Z,13.700
2022-12-05T12:22:24.475Z,13.950
2022-12-05T12:23:20.925Z,14.250
2022-12-05T12:24:28.793Z,14.000
2022-12-05T12:25:26.170Z,16.000
2022-12-05T12:26:22.227Z,16.200
2022-12-05T12:27:30.519Z,13.800
2022-12-05T12:28:27.035Z,11.000
2022-12-05T12:29:28.118Z,12.400
2022-12-05T12:30:34.413Z,12.650
2022-12-05T12:31:28.601Z,13.800
2022-12-05T12:32:25.982Z,14.900
2022-12-05T12:33:26.852Z,18.300
2022-12-05T12:34:22.785Z,16.700
2022-12-05T12:35:26.498Z,19.300
2022-12-05T12:36:24.108Z,15.400
2022-12-05T12:37:21.999Z,13.650
2022-12-05T12:38:28.389Z,10.900
2022-12-05T12:39:25.767Z,15.400
2022-12-05T12:40:23.361Z,15.550
2022-12-05T12:41:26.265Z,16.800
2022-12-05T12:42:26.407Z,15.550
2022-12-05T12:43:52.111Z,12.900
2022-12-05T12:44:25.937Z,13.250
2022-12-05T12:45:28.480Z,15.800
2022-12-05T12:46:25.653Z,14.500
2022-12-05T12:47:22.282Z,15.100
2022-12-05T12:48:30.761Z,17.200
2022-12-05T12:49:23.265Z,14.700
2022-12-05T12:50:23.403Z,16.900
2022-12-05T12:51:20.042Z,15.150
2022-12-05T12:52:25.306Z,14.500
2022-12-05T12:53:24.385Z,16.150
2022-12-05T12:54:40.121Z,17.000
2022-12-05T12:55:30.783Z,15.350
2022-12-05T12:56:29.428Z,15.500
2022-12-05T12:57:25.676Z,14.700
2022-12-05T12:58:20.608Z,13.950
2022-12-05T12:59:30.357Z,12.450
2022-12-05T13:00:20.658Z,12.400
2022-12-05T13:01:20.868Z,12.400
2022-12-05T13:02:30.758Z,14.200
2022-12-05T13:03:27.381Z,13.200
2022-12-05T13:04:24.427Z,13.600
2022-12-05T13:05:23.335Z,12.850
2022-12-05T13:06:30.516Z,12.900
2022-12-05T13:07:25.428Z,12.100
2022-12-05T13:08:24.034Z,11.700
2022-12-05T13:09:30.682Z,12.800
2022-12-05T13:10:26.737Z,12.500
2022-12-05T13:11:23.008Z,12.000
2022-12-05T13:12:22.862Z,13.750
2022-12-05T13:13:30.673Z,11.900
2022-12-05T13:14:29.105Z,12.100
2022-12-05T13:15:23.610Z,12.150
2022-12-05T13:16:21.502Z,9.850
2022-12-05T13:17:26.673Z,10.500
2022-12-05T13:18:25.861Z,12.500
2022-12-05T13:19:26.552Z,12.250
2022-12-05T13:20:28.812Z,13.450
2022-12-05T13:21:24.674Z,13.100
2022-12-05T13:22:22.557Z,12.600
2022-12-05T13:23:24.244Z,13.900
2022-12-05T13:24:26.638Z,13.100
2022-12-05T13:25:24.705Z,13.700
2022-12-05T13:26:29.432Z,13.500
2022-12-05T13:27:23.228Z,14.000
2022-12-05T13:28:26.247Z,15.900
2022-12-05T13:29:22.428Z,16.100
2022-12-05T13:30:23.649Z,12.650
2022-12-05T13:31:29.305Z,12.200
2022-12-05T13:32:24.158Z,14.000
2022-12-05T13:33:37.048Z,15.700
2022-12-05T13:34:22.214Z,12.000
2022-12-05T13:35:24.563Z,14.700
2022-12-05T13:36:21.238Z,14.200
2022-12-05T13:37:30.534Z,13.350
2022-12-05T13:38:22.269Z,15.500
2022-12-05T13:39:23.939Z,15.550
2022-12-05T13:40:34.039Z,13.750
2022-12-05T13:41:25.300Z,13.000